Time;durP1;ratioP1;P1;durP2;ratioP2;P2;SDS_P1;SDS_P2;PMS_P1;PMS_P2;Temp;Humidity;BMP_temperature;BMP_pressure;BME280_temperature;BME280_humidity;BME280_pressure;Samples;Min_cycle;Max_cycle;Signal;HPM_P1;HPM_P2
2023/10/25 00:06:44;;;;;;;36.20;14.90;;;;;;;12.83;96.44;96919.88;435195;1251;108767;-41
2023/10/25 00:16:46;;;;;;;34.00;13.10;;;;;;;12.89;96.79;96907.28;435048;1254;99238;-40
2023/10/25 00:36:54;;;;;;;33.40;13.50;;;;;;;12.97;97.40;96883.64;434995;1251;391374;-41
2023/10/25 00:46:58;;;;;;;42.30;15.20;;;;;;;13.00;97.39;96866.38;435268;1251;99356;-42
2023/10/25 00:57:02;;;;;;;25.50;11.90;;;;;;;13.00;97.58;96860.06;435087;1254;109441;-41
2023/10/25 01:07:06;;;;;;;28.00;11.50;;;;;;;12.97;97.97;96842.38;435240;1254;99212;-40
2023/10/25 01:17:09;;;;;;;19.70;10.40;;;;;;;12.96;98.16;96832.27;436047;1250;112373;-41
2023/10/25 01:27:13;;;;;;;27.90;12.20;;;;;;;13.00;98.52;96825.04;435398;1253;107716;-40
2023/10/25 01:37:18;;;;;;;24.10;10.70;;;;;;;13.08;98.53;96822.53;435468;1253;97976;-41
2023/10/25 01:47:21;;;;;;;24.30;11.20;;;;;;;13.12;98.38;96822.77;435413;1253;108529;-40
2023/10/25 01:57:29;;;;;;;26.20;11.70;;;;;;;13.13;98.50;96817.52;435299;1253;99209;-40
2023/10/25 02:17:36;;;;;;;27.10;15.00;;;;;;;13.18;99.05;96821.80;435398;1253;108734;-40
2023/10/25 02:27:40;;;;;;;20.80;14.20;;;;;;;13.15;99.05;96820.20;435483;1250;99326;-41
2023/10/25 02:37:47;;;;;;;16.90;11.70;;;;;;;13.03;99.16;96827.71;435649;1253;108905;-40
2023/10/25 02:47:51;;;;;;;17.70;12.50;;;;;;;12.91;99.17;96820.60;435367;1251;98708;-41
2023/10/25 02:57:55;;;;;;;13.40;11.20;;;;;;;12.87;99.23;96814.31;435553;1250;110978;-41
2023/10/25 03:07:58;;;;;;;13.80;10.60;;;;;;;12.83;99.30;96807.16;435329;1271;106234;-40
2023/10/25 03:18:02;;;;;;;13.10;10.10;;;;;;;12.80;99.43;96814.30;435472;1253;101386;-40
2023/10/25 03:28:06;;;;;;;16.70;12.40;;;;;;;12.75;99.38;96822.48;435505;1253;107133;-41
2023/10/25 03:38:09;;;;;;;14.30;11.00;;;;;;;12.72;99.30;96818.80;435395;1250;98012;-41
2023/10/25 03:48:12;;;;;;;19.60;13.60;;;;;;;12.66;99.39;96819.42;435521;1253;111773;-41
2023/10/25 03:58:19;;;;;;;21.10;15.80;;;;;;;12.66;99.48;96815.61;435144;1253;106966;-41
2023/10/25 04:18:26;;;;;;;26.70;18.20;;;;;;;12.53;99.71;96818.65;435527;1250;108085;-40
2023/10/25 04:28:31;;;;;;;28.00;18.50;;;;;;;12.47;99.97;96815.49;435214;1253;99715;-41
2023/10/25 04:38:38;;;;;;;30.60;20.40;;;;;;;12.46;100.00;96811.05;435307;1253;111793;-41
2023/10/25 04:48:44;;;;;;;29.80;20.50;;;;;;;12.41;100.00;96811.04;435375;1253;108505;-40
2023/10/25 04:58:49;;;;;;;21.80;16.80;;;;;;;12.34;100.00;96819.98;435473;1253;99269;-40
2023/10/25 05:08:53;;;;;;;15.70;11.40;;;;;;;12.24;100.00;96824.01;435357;1250;108564;-40
2023/10/25 05:29:03;;;;;;;8.50;7.00;;;;;;;12.08;100.00;96853.77;435478;1254;111387;-41
2023/10/25 05:39:08;;;;;;;8.00;5.20;;;;;;;11.95;100.00;96871.33;435338;1251;107490;-40
2023/10/25 05:49:11;;;;;;;5.60;4.10;;;;;;;11.85;100.00;96881.72;435376;1253;99265;-40
2023/10/25 05:59:14;;;;;;;5.40;4.80;;;;;;;11.75;100.00;96894.22;435371;1254;107172;-40
2023/10/25 06:09:18;;;;;;;5.70;4.70;;;;;;;11.71;100.00;96913.06;435337;1253;97931;-41
2023/10/25 06:19:21;;;;;;;5.70;5.10;;;;;;;11.67;100.00;96931.84;435373;1263;111336;-40
2023/10/25 06:29:25;;;;;;;6.00;4.90;;;;;;;11.63;100.00;96945.17;435324;1251;106746;-39
2023/10/25 06:39:30;;;;;;;11.60;7.80;;;;;;;11.58;100.00;96951.87;435407;1253;98361;-40
2023/10/25 06:49:37;;;;;;;7.80;5.90;;;;;;;11.53;100.00;96967.20;435140;1251;106616;-39
2023/10/25 06:59:41;;;;;;;9.20;6.60;;;;;;;11.50;100.00;96976.49;435356;1254;99241;-39
2023/10/25 07:09:46;;;;;;;10.80;7.60;;;;;;;11.50;100.00;96978.83;435386;1262;111467;-40
2023/10/25 07:19:50;;;;;;;10.90;6.90;;;;;;;11.53;100.00;96977.79;435213;1253;107244;-40
2023/10/25 07:29:56;;;;;;;16.50;10.40;;;;;;;11.55;100.00;96981.32;435236;1263;99922;-40
2023/10/25 07:40:00;;;;;;;20.10;12.00;;;;;;;11.53;100.00;96988.17;435270;1253;108485;-39
2023/10/25 08:00:09;;;;;;;17.80;11.50;;;;;;;11.43;100.00;97006.09;435315;1251;111300;-40
2023/10/25 08:10:13;;;;;;;17.10;11.40;;;;;;;11.42;100.00;97016.46;435246;1253;107578;-39
2023/10/25 08:20:15;;;;;;;16.30;10.10;;;;;;;11.39;100.00;97024.64;435428;1253;99316;-40
2023/10/25 08:30:22;;;;;;;16.50;11.00;;;;;;;11.41;100.00;97034.20;435285;1251;107924;-43
2023/10/25 08:40:26;;;;;;;18.90;10.80;;;;;;;11.39;100.00;97053.12;435406;1253;99209;-40
2023/10/25 08:50:31;;;;;;;18.80;12.00;;;;;;;11.43;100.00;97058.80;435422;1254;113050;-40
2023/10/25 09:00:37;;;;;;;16.50;10.00;;;;;;;11.52;100.00;97067.75;435406;1251;107100;-40
2023/10/25 09:10:57;;;;;;;15.90;11.10;;;;;;;11.48;100.00;97077.66;435188;1252;99206;-41
2023/10/25 09:21:05;;;;;;;17.90;12.10;;;;;;;11.45;100.00;97075.98;435409;1253;107992;-39
2023/10/25 09:31:11;;;;;;;15.90;10.60;;;;;;;11.45;100.00;97074.98;435325;1263;98119;-42
2023/10/25 09:51:24;;;;;;;9.60;8.20;;;;;;;11.55;100.00;97092.86;435513;1263;107756;-39
2023/10/25 10:01:29;;;;;;;12.50;8.30;;;;;;;11.58;100.00;97090.05;435498;1253;99218;-41
2023/10/25 10:31:59;;;;;;;10.90;7.40;;;;;;;11.77;100.00;97110.70;435307;1262;111147;-39
2023/10/25 10:42:03;;;;;;;12.60;7.80;;;;;;;11.78;100.00;97118.76;435639;1253;108103;-40
2023/10/25 10:52:07;;;;;;;13.70;9.40;;;;;;;11.78;100.00;97119.96;435430;1256;99218;-41
2023/10/25 11:02:11;;;;;;;18.80;11.00;;;;;;;11.82;100.00;97106.14;435450;1255;108197;-40
2023/10/25 11:12:15;;;;;;;17.30;12.00;;;;;;;11.82;100.00;97112.23;435436;1253;99215;-40
2023/10/25 11:22:18;;;;;;;21.10;13.60;;;;;;;11.83;100.00;97119.08;435398;1263;111600;-40
2023/10/25 11:32:22;;;;;;;19.40;13.80;;;;;;;11.84;100.00;97120.77;435169;1251;107454;-41
2023/10/25 11:42:25;;;;;;;17.90;11.90;;;;;;;11.91;100.00;97117.48;435533;1249;99224;-40
2023/10/25 11:52:28;;;;;;;15.80;10.70;;;;;;;11.95;100.00;97120.32;435323;1263;107892;-40
2023/10/25 12:02:36;;;;;;;17.50;11.00;;;;;;;11.91;100.00;97144.25;435387;1253;99246;-41
2023/10/25 12:12:40;;;;;;;13.60;9.30;;;;;;;11.88;100.00;97144.52;435354;1253;112242;-40
2023/10/25 12:22:43;;;;;;;10.70;9.10;;;;;;;11.87;100.00;97139.61;435362;1253;108328;-38
2023/10/25 12:32:47;;;;;;;20.60;14.40;;;;;;;11.89;100.00;97147.27;435486;1250;99256;-41
2023/10/25 12:42:51;;;;;;;6.30;5.00;;;;;;;11.88;100.00;97147.65;435168;1253;397067;-41
2023/10/25 12:52:58;;;;;;;11.90;6.70;;;;;;;11.81;100.00;97149.64;435552;1250;99215;-40
2023/10/25 13:03:03;;;;;;;8.70;5.40;;;;;;;11.76;100.00;97149.20;435550;1253;111956;-39
2023/10/25 13:23:13;;;;;;;10.60;6.40;;;;;;;11.85;100.00;97153.60;435266;1253;98864;-39
2023/10/25 13:33:17;;;;;;;9.90;7.10;;;;;;;11.87;100.00;97160.80;435641;1253;107384;-40
2023/10/25 13:43:21;;;;;;;22.40;10.90;;;;;;;12.01;100.00;97166.10;435447;1253;99224;-40
2023/10/25 13:53:24;;;;;;;10.40;6.70;;;;;;;12.01;100.00;97160.44;435562;1253;113089;-40
2023/10/25 14:03:30;;;;;;;20.10;11.80;;;;;;;11.94;100.00;97156.46;435476;1253;108353;-40
2023/10/25 14:13:59;;;;;;;10.20;7.20;;;;;;;11.91;100.00;97154.94;435776;1249;98696;-39
2023/10/25 14:24:02;;;;;;;18.40;12.10;;;;;;;11.94;100.00;97161.05;435483;1250;108048;-39
2023/10/25 14:34:06;;;;;;;25.20;19.70;;;;;;;12.00;100.00;97155.41;435880;1250;98066;-41
2023/10/25 14:44:09;;;;;;;23.10;16.70;;;;;;;11.99;100.00;97156.59;435668;1253;111359;-39
2023/10/25 14:54:13;;;;;;;8.70;6.40;;;;;;;12.04;100.00;97142.77;435547;1251;108431;-41
2023/10/25 15:04:17;;;;;;;11.80;7.40;;;;;;;12.06;100.00;97130.38;435721;1253;99454;-39
2023/10/25 15:14:21;;;;;;;107.80;63.70;;;;;;;11.97;100.00;97126.29;435744;1250;108584;-40
2023/10/25 15:24:25;;;;;;;22.70;12.10;;;;;;;11.91;100.00;97123.27;435561;1250;99351;-39
2023/10/25 15:44:32;;;;;;;24.10;18.40;;;;;;;11.08;99.43;97137.31;435480;1253;108578;-41
2023/10/25 15:54:37;;;;;;;26.40;18.80;;;;;;;10.83;99.42;97138.68;435541;1253;97973;-41
2023/10/25 16:14:44;;;;;;;43.60;31.40;;;;;;;10.41;99.46;97129.11;435613;1250;99228;-40
2023/10/25 16:36:50;;;;;;;55.00;40.00;;;;;;;10.12;99.69;97119.88;435639;1253;112863;-40
2023/10/25 16:47:07;;;;;;;51.30;38.10;;;;;;;9.98;99.43;97109.98;435430;1253;97985;-41
2023/10/25 16:57:10;;;;;;;49.70;34.40;;;;;;;9.85;99.16;97099.03;435600;1250;107969;-40
2023/10/25 17:07:17;;;;;;;63.40;43.90;;;;;;;9.59;98.76;97098.67;435632;1253;99214;-41
2023/10/25 17:17:21;;;;;;;73.40;51.40;;;;;;;9.10;98.43;97111.20;435577;1253;110936;-41
2023/10/25 17:27:24;;;;;;;77.00;54.00;;;;;;;8.84;98.48;97114.02;435637;1250;108581;-40
2023/10/25 17:37:28;;;;;;;130.90;80.70;;;;;;;8.71;98.65;97108.45;435446;1250;99252;-41
2023/10/25 17:47:32;;;;;;;135.70;84.10;;;;;;;8.73;99.01;97105.20;435472;1250;108592;-40
2023/10/25 18:07:39;;;;;;;106.00;68.40;;;;;;;8.74;99.18;97091.14;435690;1250;110613;-40
2023/10/25 18:17:42;;;;;;;120.20;78.80;;;;;;;8.64;99.12;97090.19;435767;1253;108043;-40
2023/10/25 18:27:46;;;;;;;114.90;73.00;;;;;;;8.51;99.42;97091.85;435650;1248;99228;-40
2023/10/25 18:37:50;;;;;;;83.90;52.80;;;;;;;8.50;99.46;97081.50;435536;1253;108431;-41
2023/10/25 18:47:53;;;;;;;76.50;47.50;;;;;;;8.65;99.76;97081.51;435532;1250;101508;-40
2023/10/25 18:57:56;;;;;;;75.10;48.40;;;;;;;8.85;99.90;97080.88;435588;1248;112889;-40
2023/10/25 19:08:00;;;;;;;78.30;50.10;;;;;;;9.07;99.99;97072.48;435640;1253;108551;-40
2023/10/25 19:18:23;;;;;;;86.20;59.20;;;;;;;9.34;99.99;97070.89;435792;1250;98013;-39
2023/10/25 19:28:26;;;;;;;100.60;63.00;;;;;;;9.23;99.88;97064.38;435598;1253;108002;-39
2023/10/25 19:38:30;;;;;;;77.10;54.20;;;;;;;9.30;99.90;97045.73;435672;1250;99249;-40
2023/10/25 19:48:34;;;;;;;75.90;53.80;;;;;;;9.21;99.45;97041.80;435587;1255;111867;-41
2023/10/25 19:58:37;;;;;;;89.10;62.70;;;;;;;8.94;98.87;97040.96;435356;1250;108404;-40
2023/10/25 20:08:40;;;;;;;101.20;67.90;;;;;;;8.68;98.72;97032.40;435718;1253;99230;-40
2023/10/25 20:18:44;;;;;;;135.50;89.90;;;;;;;8.43;98.66;97018.63;435373;1251;107820;-40
2023/10/25 20:28:47;;;;;;;150.10;98.20;;;;;;;8.13;98.80;97007.98;435390;1253;99236;-40
2023/10/25 20:38:56;;;;;;;117.00;77.90;;;;;;;7.87;98.57;96997.70;435611;1253;112076;-40
2023/10/25 20:49:00;;;;;;;87.90;57.90;;;;;;;7.82;98.99;96992.29;435459;1253;107824;-40
2023/10/25 20:59:04;;;;;;;82.40;49.60;;;;;;;7.85;99.28;96991.26;435519;1253;99218;-40
2023/10/25 21:09:11;;;;;;;97.30;62.20;;;;;;;7.89;99.44;97002.91;435382;1253;108273;-40
2023/10/25 21:19:18;;;;;;;89.30;54.90;;;;;;;7.91;99.47;96997.77;435307;1253;99191;-40
2023/10/25 21:29:21;;;;;;;86.50;55.60;;;;;;;7.80;99.26;97002.63;435535;1249;111200;-40
2023/10/25 21:39:25;;;;;;;98.20;59.30;;;;;;;7.65;99.18;96991.60;435374;1249;108590;-40
2023/10/25 21:49:29;;;;;;;105.30;62.00;;;;;;;7.55;99.50;96993.20;435440;1253;99337;-40
2023/10/25 21:59:33;;;;;;;106.30;62.70;;;;;;;7.58;99.62;96979.58;435334;1253;108178;-39
2023/10/25 22:10:00;;;;;;;80.30;49.70;;;;;;;7.60;99.87;96961.65;435495;1250;99255;-40
2023/10/25 22:20:04;;;;;;;89.10;51.90;;;;;;;7.61;99.73;96960.34;435407;1250;111054;-40
2023/10/25 22:50:21;;;;;;;81.90;49.30;;;;;;;7.67;99.92;96934.76;435606;1253;108012;-40
2023/10/25 23:00:24;;;;;;;71.10;45.00;;;;;;;7.66;99.79;96927.23;435396;1251;98027;-39
2023/10/25 23:10:27;;;;;;;70.20;42.00;;;;;;;7.61;99.91;96919.89;435350;1253;111859;-42
2023/10/25 23:20:31;;;;;;;65.00;39.90;;;;;;;7.58;100.00;96910.28;435336;1253;107314;-40
2023/10/25 23:30:38;;;;;;;62.20;39.60;;;;;;;7.59;100.00;96903.98;435488;1253;99222;-41
2023/10/25 23:40:42;;;;;;;64.20;40.90;;;;;;;7.58;100.00;96886.35;435352;1253;108032;-41
2023/10/25 23:50:47;;;;;;;73.90;42.60;;;;;;;7.51;100.00;96877.29;435367;1253;99285;-41
